Terminal Aerodrome Forecast
Issued by NWS Blacksburg, VA

Current Version | Previous Version | Graphics & Text | Print | Product List | Glossary On
Versions: 1 2 3 4 5 6 7 8 9 10 11 12 13 14 15 16 17 18
000
FTUS41 KRNK 250540
TAFBLF
TAF
KBLF 250540Z 2506/2606 09008KT 2SM BR OVC003
      TEMPO 2506/2510 1/4SM FG VV001
     FM251000 09008KT 4SM -DZ BR OVC003 WS020/08040KT
     FM251300 07006KT P6SM VCSH OVC008 WS020/08035KT
     FM251800 06005KT P6SM SCT008 OVC015
     FM260300 VRB03KT 4SM BR BKN008=

USA.gov is the U.S. government's official web portal to all federal, state and local government web resources and services.